createdAt,value
2022-08-20T00:02:07.774Z,0.65
2022-08-20T00:05:10.790Z,0.80
2022-08-20T00:08:13.541Z,0.70
2022-08-20T00:11:19.632Z,0.70
2022-08-20T00:14:21.125Z,0.50
2022-08-20T00:17:24.113Z,0.80
2022-08-20T00:20:34.044Z,0.63
2022-08-20T00:23:43.897Z,0.70
2022-08-20T00:26:46.785Z,0.70
2022-08-20T00:29:54.098Z,0.60
2022-08-20T00:33:01.056Z,0.60
2022-08-20T00:36:06.665Z,0.65
2022-08-20T00:39:08.246Z,0.63
2022-08-20T00:42:10.238Z,1.10
2022-08-20T00:45:12.238Z,0.60
2022-08-20T00:48:14.333Z,0.50
2022-08-20T00:51:39.791Z,0.60
2022-08-20T00:54:49.583Z,0.50
2022-08-20T00:58:01.332Z,0.63
2022-08-20T01:01:05.316Z,0.80
2022-08-20T01:04:07.314Z,0.60
2022-08-20T01:07:11.342Z,0.60
2022-08-20T01:10:19.455Z,0.73
2022-08-20T01:13:24.157Z,0.85
2022-08-20T01:16:30.082Z,0.70
2022-08-20T01:19:36.641Z,0.50
2022-08-20T01:23:03.530Z,0.52
2022-08-20T01:26:14.460Z,0.63
2022-08-20T01:29:22.398Z,0.50
2022-08-20T01:32:24.079Z,0.68
2022-08-20T01:35:26.230Z,0.57
2022-08-20T01:38:29.723Z,0.80
2022-08-20T01:41:54.787Z,0.82
2022-08-20T01:44:56.316Z,0.57
2022-08-20T01:47:58.670Z,0.70
2022-08-20T01:51:06.906Z,0.57
2022-08-20T01:54:09.023Z,0.98
2022-08-20T01:57:18.884Z,0.70
2022-08-20T02:00:22.243Z,0.60
2022-08-20T02:06:26.772Z,0.60
2022-08-20T02:09:33.551Z,0.50
2022-08-20T02:12:35.342Z,0.73
2022-08-20T02:15:39.781Z,0.70
2022-08-20T02:18:44.980Z,0.60
2022-08-20T02:21:51.011Z,0.80
2022-08-20T02:24:52.853Z,0.60
2022-08-20T02:27:56.063Z,0.80
2022-08-20T02:34:22.218Z,0.52
2022-08-20T02:37:20.793Z,0.80
2022-08-20T02:40:30.435Z,0.70
2022-08-20T02:43:32.743Z,0.60
2022-08-20T02:46:35.251Z,0.77
2022-08-20T02:49:36.838Z,0.73
2022-08-20T02:52:38.468Z,0.80
2022-08-20T02:55:39.984Z,0.80
2022-08-20T02:58:42.626Z,0.75
2022-08-20T03:01:44.763Z,0.70
2022-08-20T03:04:46.589Z,0.53
2022-08-20T03:07:53.581Z,0.80
2022-08-20T03:10:55.386Z,0.60
2022-08-20T03:13:57.075Z,0.60
2022-08-20T03:16:59.514Z,0.63
2022-08-20T03:20:01.193Z,0.73
2022-08-20T03:23:02.907Z,0.82
2022-08-20T03:26:07.101Z,0.70
2022-08-20T03:29:08.830Z,0.60
2022-08-20T03:32:10.361Z,0.63
2022-08-20T03:35:15.850Z,0.80
2022-08-20T03:38:20.738Z,0.60
2022-08-20T03:41:34.265Z,0.60
2022-08-20T03:44:36.301Z,0.60
2022-08-20T03:47:40.180Z,0.82
2022-08-20T03:50:42.420Z,4.15
2022-08-20T03:53:44.008Z,1.30
2022-08-20T03:56:45.524Z,1.10
2022-08-20T03:59:47.150Z,0.90
2022-08-20T04:02:57.084Z,0.90
2022-08-20T04:05:59.194Z,0.80
2022-08-20T04:09:01.026Z,1.10
2022-08-20T04:12:02.760Z,0.70
2022-08-20T04:15:04.876Z,0.90
2022-08-20T04:18:10.226Z,0.80
2022-08-20T04:21:11.922Z,0.88
2022-08-20T04:24:22.673Z,0.70
2022-08-20T04:27:33.808Z,0.70
2022-08-20T04:30:35.459Z,0.80
2022-08-20T04:33:36.999Z,1.02
2022-08-20T04:36:38.455Z,0.75
2022-08-20T04:39:41.715Z,1.00
2022-08-20T04:45:47.008Z,2.00
2022-08-20T04:48:50.467Z,1.08
2022-08-20T04:51:56.010Z,1.67
2022-08-20T04:54:57.480Z,1.33
2022-08-20T04:58:04.740Z,1.35
2022-08-20T05:01:09.458Z,1.70
2022-08-20T05:04:11.224Z,1.45
2022-08-20T05:07:14.714Z,2.10
2022-08-20T05:10:18.870Z,1.27
2022-08-20T05:13:25.261Z,3.28
2022-08-20T05:16:28.949Z,3.65
2022-08-20T05:19:33.830Z,1.70
2022-08-20T05:22:38.658Z,1.25
2022-08-20T05:25:43.103Z,1.10
2022-08-20T05:28:52.772Z,1.00
2022-08-20T05:31:59.770Z,1.20
2022-08-20T05:35:09.690Z,1.50
2022-08-20T05:38:14.308Z,1.90
2022-08-20T05:41:28.672Z,0.98
2022-08-20T05:44:31.419Z,0.90
2022-08-20T05:47:35.401Z,1.08
2022-08-20T05:50:46.232Z,0.98
2022-08-20T05:53:47.929Z,1.10
2022-08-20T05:56:50.444Z,1.10
2022-08-20T05:59:52.988Z,1.10
2022-08-20T06:03:13.833Z,1.15
2022-08-20T06:06:18.171Z,0.90
2022-08-20T06:09:37.645Z,1.08
2022-08-20T06:12:39.538Z,1.58
2022-08-20T06:15:41.197Z,1.70
2022-08-20T06:18:42.750Z,1.33
2022-08-20T06:21:44.220Z,1.50
2022-08-20T06:24:46.160Z,1.20
2022-08-20T06:27:47.771Z,1.55
2022-08-20T06:30:49.291Z,1.63
2022-08-20T06:33:50.877Z,1.17
2022-08-20T06:36:52.569Z,1.30
2022-08-20T06:39:55.030Z,1.30
2022-08-20T06:42:57.871Z,1.13
2022-08-20T06:46:00.520Z,1.17
2022-08-20T06:49:04.565Z,1.02
2022-08-20T06:52:06.207Z,1.40
2022-08-20T06:55:10.488Z,1.30
2022-08-20T06:58:30.431Z,1.40
2022-08-20T07:01:35.573Z,1.30
2022-08-20T07:04:37.394Z,1.20
2022-08-20T07:07:39.500Z,1.30
2022-08-20T07:10:42.755Z,1.13
2022-08-20T07:13:45.300Z,1.10
2022-08-20T07:16:47.234Z,1.50
2022-08-20T07:19:48.838Z,1.40
2022-08-20T07:22:50.534Z,1.30
2022-08-20T07:25:53.382Z,1.30
2022-08-20T07:28:54.930Z,1.42
2022-08-20T07:32:15.083Z,1.33
2022-08-20T07:35:18.456Z,1.20
2022-08-20T07:41:26.186Z,1.35
2022-08-20T07:44:30.882Z,1.55
2022-08-20T07:47:35.509Z,1.83
2022-08-20T07:50:37.746Z,1.60
2022-08-20T07:53:41.025Z,1.38
2022-08-20T07:56:42.621Z,1.48
2022-08-20T07:59:45.290Z,1.30
2022-08-20T08:02:47.785Z,1.30
2022-08-20T08:05:53.769Z,1.40
2022-08-20T08:08:55.790Z,1.75
2022-08-20T08:11:59.009Z,1.73
2022-08-20T08:15:00.645Z,1.50
2022-08-20T08:18:07.910Z,1.73
2022-08-20T08:21:12.871Z,1.92
2022-08-20T08:24:19.920Z,1.42
2022-08-20T08:27:23.362Z,1.30
2022-08-20T08:30:25.453Z,1.70
2022-08-20T08:33:33.378Z,1.55
2022-08-20T08:36:34.953Z,1.20
2022-08-20T08:39:36.589Z,1.50
2022-08-20T08:42:44.702Z,1.67
2022-08-20T08:45:51.944Z,2.00
2022-08-20T08:48:57.822Z,1.70
2022-08-20T08:52:01.727Z,1.40
2022-08-20T08:55:09.910Z,2.05
2022-08-20T08:58:16.840Z,1.35
2022-08-20T09:01:54.879Z,1.45
2022-08-20T09:04:45.024Z,1.80
2022-08-20T09:07:53.122Z,1.80
2022-08-20T09:11:02.071Z,1.85
2022-08-20T09:14:03.575Z,1.85
2022-08-20T09:17:06.038Z,1.85
2022-08-20T09:20:09.416Z,1.90
2022-08-20T09:23:10.913Z,1.33
2022-08-20T09:26:13.603Z,1.52
2022-08-20T09:29:15.207Z,1.55
2022-08-20T09:32:19.426Z,1.55
2022-08-20T09:35:22.714Z,1.70
2022-08-20T09:38:24.222Z,1.10
2022-08-20T09:41:25.698Z,1.40
2022-08-20T09:44:27.170Z,1.42
2022-08-20T09:47:30.520Z,1.35
2022-08-20T09:50:35.669Z,1.17
2022-08-20T09:53:37.246Z,1.45
2022-08-20T09:56:38.821Z,1.27
2022-08-20T09:59:40.348Z,1.48
2022-08-20T10:02:42.823Z,1.20
2022-08-20T10:05:44.454Z,1.67
2022-08-20T10:08:46.245Z,1.75
2022-08-20T10:11:48.043Z,2.00
2022-08-20T10:14:49.939Z,1.80
2022-08-20T10:17:51.500Z,1.63
2022-08-20T10:20:53.127Z,1.42
2022-08-20T10:23:54.691Z,1.60
2022-08-20T10:26:58.554Z,0.95
2022-08-20T10:30:00.419Z,1.25
2022-08-20T10:33:01.984Z,1.40
2022-08-20T10:36:13.025Z,1.45
2022-08-20T10:39:15.398Z,1.17
2022-08-20T10:42:17.035Z,1.23
2022-08-20T10:45:19.143Z,1.50
2022-08-20T10:48:21.683Z,1.30
2022-08-20T10:51:23.520Z,1.00
2022-08-20T10:54:34.369Z,1.20
2022-08-20T10:57:39.456Z,1.30
2022-08-20T11:00:41.660Z,0.93
2022-08-20T11:03:43.229Z,0.60
2022-08-20T11:06:44.766Z,0.22
2022-08-20T11:09:50.291Z,0.30
2022-08-20T11:12:52.175Z,0.30
2022-08-20T11:15:53.709Z,0.20
2022-08-20T11:18:55.285Z,0.25
2022-08-20T11:21:56.792Z,0.28
2022-08-20T11:24:58.262Z,1.08
2022-08-20T11:28:00.385Z,0.40
2022-08-20T11:31:02.487Z,0.40
2022-08-20T11:34:04.131Z,0.40
2022-08-20T11:37:05.615Z,0.20
2022-08-20T11:40:09.144Z,0.30
2022-08-20T11:43:16.420Z,0.15
2022-08-20T11:46:21.879Z,0.45
2022-08-20T11:49:25.816Z,0.38
2022-08-20T11:52:29.157Z,0.10
2022-08-20T11:55:32.540Z,0.40
2022-08-20T11:58:34.138Z,0.40
2022-08-20T12:01:35.739Z,0.30
2022-08-20T12:04:37.372Z,0.32
2022-08-20T12:07:39.363Z,0.30
2022-08-20T12:10:40.921Z,0.30
2022-08-20T12:13:48.204Z,0.40
2022-08-20T12:16:50.658Z,0.30
2022-08-20T12:19:54.178Z,0.30
2022-08-20T12:22:55.899Z,0.30
2022-08-20T12:25:57.627Z,0.43
2022-08-20T12:32:02.479Z,0.30
2022-08-20T12:35:07.096Z,0.28
2022-08-20T12:38:08.782Z,0.40
2022-08-20T12:41:10.607Z,0.30
2022-08-20T12:44:13.366Z,0.47
2022-08-20T12:47:21.074Z,0.30
2022-08-20T12:50:29.670Z,0.30
2022-08-20T12:53:32.876Z,0.30
2022-08-20T12:56:39.483Z,0.43
2022-08-20T12:59:41.172Z,0.22
2022-08-20T13:02:42.628Z,0.30
2022-08-20T13:05:44.453Z,0.32
2022-08-20T13:08:46.991Z,0.30
2022-08-20T13:11:49.160Z,0.32
2022-08-20T13:14:50.637Z,0.30
2022-08-20T13:17:54.760Z,0.30
2022-08-20T13:20:56.244Z,0.20
2022-08-20T13:23:57.756Z,0.20
2022-08-20T13:27:14.003Z,0.30
2022-08-20T13:30:19.208Z,0.30
2022-08-20T13:33:20.865Z,0.28
2022-08-20T13:36:22.762Z,0.38
2022-08-20T13:39:24.307Z,0.30
2022-08-20T13:42:27.060Z,0.32
2022-08-20T13:45:28.606Z,0.32
2022-08-20T13:48:30.186Z,0.50
2022-08-20T13:51:31.939Z,0.47
2022-08-20T13:54:34.471Z,0.60
2022-08-20T13:57:36.876Z,0.60
2022-08-20T14:00:43.633Z,0.70
2022-08-20T14:03:46.465Z,1.10
2022-08-20T14:10:01.425Z,0.60
2022-08-20T14:13:03.879Z,0.60
2022-08-20T14:16:05.616Z,0.70
2022-08-20T14:19:23.592Z,0.80
2022-08-20T14:22:32.534Z,0.90
2022-08-20T14:25:34.541Z,0.90
2022-08-20T14:28:36.117Z,0.75
2022-08-20T14:31:37.671Z,0.60
2022-08-20T14:34:41.992Z,0.98
2022-08-20T14:37:47.286Z,0.80
2022-08-20T14:40:50.871Z,0.90
2022-08-20T14:43:52.405Z,0.60
2022-08-20T14:46:53.874Z,0.80
2022-08-20T14:49:57.819Z,0.70
2022-08-20T14:53:00.459Z,0.40
2022-08-20T14:56:02.110Z,0.63
2022-08-20T14:59:03.880Z,0.52
2022-08-20T15:02:07.730Z,0.40
2022-08-20T15:05:09.888Z,0.50
2022-08-20T15:08:12.013Z,0.85
2022-08-20T15:11:14.802Z,0.45
2022-08-20T15:14:18.431Z,0.95
2022-08-20T15:17:27.257Z,0.60
2022-08-20T15:20:31.482Z,1.20
2022-08-20T15:23:33.045Z,1.70
2022-08-20T15:26:34.730Z,0.65
2022-08-20T15:29:36.241Z,0.73
2022-08-20T15:32:37.789Z,1.20
2022-08-20T15:35:39.539Z,0.75
2022-08-20T15:38:41.050Z,0.70
2022-08-20T15:41:42.501Z,1.83
2022-08-20T15:44:45.038Z,1.48
2022-08-20T15:48:06.154Z,2.70
2022-08-20T15:51:16.972Z,0.75
2022-08-20T15:54:23.682Z,0.60
2022-08-20T15:57:40.857Z,0.70
2022-08-20T16:01:24.802Z,0.50
2022-08-20T16:04:49.043Z,0.70
2022-08-20T16:07:58.179Z,0.60
2022-08-20T16:11:05.498Z,0.52
2022-08-20T16:14:21.134Z,0.60
2022-08-20T16:17:40.858Z,0.60
2022-08-20T16:20:50.126Z,0.60
2022-08-20T16:23:51.622Z,0.60
2022-08-20T16:27:23.930Z,0.50
2022-08-20T16:30:36.350Z,0.40
2022-08-20T16:33:58.983Z,0.57
2022-08-20T16:37:10.119Z,0.60
2022-08-20T16:40:30.436Z,0.52
2022-08-20T16:43:39.884Z,0.60
2022-08-20T16:46:50.178Z,0.52
2022-08-20T16:50:11.293Z,0.50
2022-08-20T16:53:19.415Z,0.40
2022-08-20T16:56:41.641Z,0.30
2022-08-20T17:00:15.387Z,0.52
2022-08-20T17:03:33.509Z,0.50
2022-08-20T17:06:47.457Z,0.50
2022-08-20T17:09:50.342Z,0.73
2022-08-20T17:12:59.289Z,0.40
2022-08-20T17:16:07.973Z,0.40
2022-08-20T17:19:31.405Z,0.52
2022-08-20T17:22:42.347Z,0.60
2022-08-20T17:26:05.118Z,0.50
2022-08-20T17:29:18.628Z,0.50
2022-08-20T17:32:26.189Z,0.30
2022-08-20T17:35:41.353Z,0.30
2022-08-20T17:38:48.629Z,0.73
2022-08-20T17:42:03.061Z,0.45
2022-08-20T17:45:26.172Z,0.63
2022-08-20T17:48:33.342Z,0.60
2022-08-20T17:51:45.792Z,0.60
2022-08-20T17:54:48.857Z,0.77
2022-08-20T17:57:56.749Z,0.70
2022-08-20T18:00:59.414Z,0.55
2022-08-20T18:04:01.021Z,0.70
2022-08-20T18:07:18.194Z,0.57
2022-08-20T18:10:23.443Z,0.45
2022-08-20T18:13:50.170Z,0.50
2022-08-20T18:16:54.637Z,0.70
2022-08-20T18:20:11.408Z,1.10
2022-08-20T18:23:19.086Z,1.35
2022-08-20T18:26:32.651Z,0.82
